sensor_id;sensor_type;location;lat;lon;timestamp;P1;durP1;ratioP1;P2;durP2;ratioP2
21120;SDS011;12519;43.318;21.898;2022-08-05T00:01:55;8.0;;;6.0;;
21120;SDS011;12519;43.318;21.898;2022-08-05T00:06:32;10.0;;;7.0;;
21120;SDS011;12519;43.318;21.898;2022-08-05T00:11:14;10.0;;;7.0;;
21120;SDS011;12519;43.318;21.898;2022-08-05T00:15:52;8.0;;;6.0;;
21120;SDS011;12519;43.318;21.898;2022-08-05T00:20:29;8.0;;;6.0;;
21120;SDS011;12519;43.318;21.898;2022-08-05T00:25:07;6.0;;;5.0;;
21120;SDS011;12519;43.318;21.898;2022-08-05T00:29:44;6.0;;;5.0;;
21120;SDS011;12519;43.318;21.898;2022-08-05T00:34:21;6.0;;;6.0;;
21120;SDS011;12519;43.318;21.898;2022-08-05T00:38:57;6.0;;;6.0;;
21120;SDS011;12519;43.318;21.898;2022-08-05T00:43:35;6.0;;;6.0;;
21120;SDS011;12519;43.318;21.898;2022-08-05T00:48:18;7.0;;;7.0;;
21120;SDS011;12519;43.318;21.898;2022-08-05T00:52:59;7.0;;;7.0;;
21120;SDS011;12519;43.318;21.898;2022-08-05T00:57:36;8.0;;;8.0;;
21120;SDS011;12519;43.318;21.898;2022-08-05T01:02:13;8.0;;;8.0;;
21120;SDS011;12519;43.318;21.898;2022-08-05T01:06:50;8.0;;;8.0;;
21120;SDS011;12519;43.318;21.898;2022-08-05T01:11:37;8.0;;;8.0;;
21120;SDS011;12519;43.318;21.898;2022-08-05T01:16:37;9.0;;;7.0;;
21120;SDS011;12519;43.318;21.898;2022-08-05T01:22:24;9.0;;;7.0;;
21120;SDS011;12519;43.318;21.898;2022-08-05T01:28:17;10.0;;;6.0;;
21120;SDS011;12519;43.318;21.898;2022-08-05T01:33:17;10.0;;;6.0;;
21120;SDS011;12519;43.318;21.898;2022-08-05T01:38:13;8.0;;;6.0;;
21120;SDS011;12519;43.318;21.898;2022-08-05T01:43:01;8.0;;;6.0;;
21120;SDS011;12519;43.318;21.898;2022-08-05T01:47:51;7.0;;;7.0;;
21120;SDS011;12519;43.318;21.898;2022-08-05T01:52:43;7.0;;;7.0;;
21120;SDS011;12519;43.318;21.898;2022-08-05T01:57:39;8.0;;;7.0;;
21120;SDS011;12519;43.318;21.898;2022-08-05T02:02:24;8.0;;;7.0;;
21120;SDS011;12519;43.318;21.898;2022-08-05T02:07:10;8.0;;;7.0;;
21120;SDS011;12519;43.318;21.898;2022-08-05T02:12:12;8.0;;;7.0;;
21120;SDS011;12519;43.318;21.898;2022-08-05T02:17:37;8.0;;;7.0;;
21120;SDS011;12519;43.318;21.898;2022-08-05T02:22:54;8.0;;;7.0;;
21120;SDS011;12519;43.318;21.898;2022-08-05T02:27:55;8.0;;;7.0;;
21120;SDS011;12519;43.318;21.898;2022-08-05T02:32:54;8.0;;;7.0;;
21120;SDS011;12519;43.318;21.898;2022-08-05T02:37:43;8.0;;;7.0;;
21120;SDS011;12519;43.318;21.898;2022-08-05T02:42:26;8.0;;;7.0;;
21120;SDS011;12519;43.318;21.898;2022-08-05T02:47:13;7.0;;;7.0;;
21120;SDS011;12519;43.318;21.898;2022-08-05T02:51:55;7.0;;;7.0;;
21120;SDS011;12519;43.318;21.898;2022-08-05T02:56:35;8.0;;;8.0;;
21120;SDS011;12519;43.318;21.898;2022-08-05T03:01:24;8.0;;;8.0;;
21120;SDS011;12519;43.318;21.898;2022-08-05T03:06:05;8.0;;;8.0;;
21120;SDS011;12519;43.318;21.898;2022-08-05T03:10:47;8.0;;;8.0;;
21120;SDS011;12519;43.318;21.898;2022-08-05T03:15:23;10.0;;;8.0;;
21120;SDS011;12519;43.318;21.898;2022-08-05T03:20:01;10.0;;;8.0;;
21120;SDS011;12519;43.318;21.898;2022-08-05T03:24:44;13.0;;;8.0;;
21120;SDS011;12519;43.318;21.898;2022-08-05T03:29:28;13.0;;;8.0;;
21120;SDS011;12519;43.318;21.898;2022-08-05T03:34:06;13.0;;;8.0;;
21120;SDS011;12519;43.318;21.898;2022-08-05T03:38:44;12.0;;;8.0;;
21120;SDS011;12519;43.318;21.898;2022-08-05T03:43:21;12.0;;;8.0;;
21120;SDS011;12519;43.318;21.898;2022-08-05T03:47:58;10.0;;;9.0;;
21120;SDS011;12519;43.318;21.898;2022-08-05T03:52:49;10.0;;;9.0;;
21120;SDS011;12519;43.318;21.898;2022-08-05T03:57:52;10.0;;;8.0;;
21120;SDS011;12519;43.318;21.898;2022-08-05T04:02:36;10.0;;;8.0;;
21120;SDS011;12519;43.318;21.898;2022-08-05T04:07:27;9.0;;;8.0;;
21120;SDS011;12519;43.318;21.898;2022-08-05T04:12:09;9.0;;;8.0;;
21120;SDS011;12519;43.318;21.898;2022-08-05T04:16:47;8.0;;;8.0;;
21120;SDS011;12519;43.318;21.898;2022-08-05T04:21:25;8.0;;;8.0;;
21120;SDS011;12519;43.318;21.898;2022-08-05T04:26:03;7.0;;;7.0;;
21120;SDS011;12519;43.318;21.898;2022-08-05T04:30:40;7.0;;;7.0;;
21120;SDS011;12519;43.318;21.898;2022-08-05T04:35:17;9.0;;;8.0;;
21120;SDS011;12519;43.318;21.898;2022-08-05T04:39:55;9.0;;;8.0;;
21120;SDS011;12519;43.318;21.898;2022-08-05T04:44:31;11.0;;;9.0;;
21120;SDS011;12519;43.318;21.898;2022-08-05T04:49:08;11.0;;;9.0;;
21120;SDS011;12519;43.318;21.898;2022-08-05T04:53:45;11.0;;;9.0;;
21120;SDS011;12519;43.318;21.898;2022-08-05T04:58:22;12.0;;;10.0;;
21120;SDS011;12519;43.318;21.898;2022-08-05T05:02:59;12.0;;;10.0;;
21120;SDS011;12519;43.318;21.898;2022-08-05T05:07:42;13.0;;;10.0;;
21120;SDS011;12519;43.318;21.898;2022-08-05T05:12:19;13.0;;;10.0;;
21120;SDS011;12519;43.318;21.898;2022-08-05T05:16:56;14.0;;;12.0;;
21120;SDS011;12519;43.318;21.898;2022-08-05T05:21:33;14.0;;;12.0;;
21120;SDS011;12519;43.318;21.898;2022-08-05T05:26:10;15.0;;;13.0;;
21120;SDS011;12519;43.318;21.898;2022-08-05T05:30:47;15.0;;;13.0;;
21120;SDS011;12519;43.318;21.898;2022-08-05T05:35:23;14.0;;;12.0;;
21120;SDS011;12519;43.318;21.898;2022-08-05T05:40:00;14.0;;;12.0;;
21120;SDS011;12519;43.318;21.898;2022-08-05T05:44:37;14.0;;;12.0;;
21120;SDS011;12519;43.318;21.898;2022-08-05T05:49:13;14.0;;;12.0;;
21120;SDS011;12519;43.318;21.898;2022-08-05T05:53:52;14.0;;;12.0;;
21120;SDS011;12519;43.318;21.898;2022-08-05T05:58:30;14.0;;;11.0;;
21120;SDS011;12519;43.318;21.898;2022-08-05T06:03:06;14.0;;;11.0;;
21120;SDS011;12519;43.318;21.898;2022-08-05T06:07:44;13.0;;;10.0;;
21120;SDS011;12519;43.318;21.898;2022-08-05T06:12:21;13.0;;;10.0;;
21120;SDS011;12519;43.318;21.898;2022-08-05T06:16:59;11.0;;;9.0;;
21120;SDS011;12519;43.318;21.898;2022-08-05T06:21:38;11.0;;;9.0;;
21120;SDS011;12519;43.318;21.898;2022-08-05T06:26:14;9.0;;;8.0;;
21120;SDS011;12519;43.318;21.898;2022-08-05T06:30:51;9.0;;;8.0;;
21120;SDS011;12519;43.318;21.898;2022-08-05T06:35:27;10.0;;;8.0;;
21120;SDS011;12519;43.318;21.898;2022-08-05T06:40:06;10.0;;;8.0;;
21120;SDS011;12519;43.318;21.898;2022-08-05T06:44:47;11.0;;;9.0;;
21120;SDS011;12519;43.318;21.898;2022-08-05T06:49:24;11.0;;;9.0;;
21120;SDS011;12519;43.318;21.898;2022-08-05T06:54:03;11.0;;;9.0;;
21120;SDS011;12519;43.318;21.898;2022-08-05T06:58:40;9.0;;;8.0;;
21120;SDS011;12519;43.318;21.898;2022-08-05T07:03:17;9.0;;;8.0;;
21120;SDS011;12519;43.318;21.898;2022-08-05T07:07:55;7.0;;;6.0;;
21120;SDS011;12519;43.318;21.898;2022-08-05T07:12:32;7.0;;;6.0;;
21120;SDS011;12519;43.318;21.898;2022-08-05T07:17:10;10.0;;;7.0;;
21120;SDS011;12519;43.318;21.898;2022-08-05T07:21:49;10.0;;;7.0;;
21120;SDS011;12519;43.318;21.898;2022-08-05T07:26:25;14.0;;;8.0;;
21120;SDS011;12519;43.318;21.898;2022-08-05T07:31:02;14.0;;;8.0;;
21120;SDS011;12519;43.318;21.898;2022-08-05T07:35:40;12.0;;;9.0;;
21120;SDS011;12519;43.318;21.898;2022-08-05T07:40:20;12.0;;;9.0;;
21120;SDS011;12519;43.318;21.898;2022-08-05T07:44:58;10.0;;;10.0;;
21120;SDS011;12519;43.318;21.898;2022-08-05T07:49:36;10.0;;;10.0;;
21120;SDS011;12519;43.318;21.898;2022-08-05T07:54:13;10.0;;;10.0;;
21120;SDS011;12519;43.318;21.898;2022-08-05T07:58:51;12.0;;;10.0;;
21120;SDS011;12519;43.318;21.898;2022-08-05T08:03:28;12.0;;;10.0;;
21120;SDS011;12519;43.318;21.898;2022-08-05T08:08:04;13.0;;;11.0;;
21120;SDS011;12519;43.318;21.898;2022-08-05T08:12:41;13.0;;;11.0;;
21120;SDS011;12519;43.318;21.898;2022-08-05T08:17:19;11.0;;;10.0;;
21120;SDS011;12519;43.318;21.898;2022-08-05T08:21:56;11.0;;;10.0;;
21120;SDS011;12519;43.318;21.898;2022-08-05T08:26:33;9.0;;;9.0;;
21120;SDS011;12519;43.318;21.898;2022-08-05T08:31:09;9.0;;;9.0;;
21120;SDS011;12519;43.318;21.898;2022-08-05T08:35:46;10.0;;;9.0;;
21120;SDS011;12519;43.318;21.898;2022-08-05T08:40:23;10.0;;;9.0;;
21120;SDS011;12519;43.318;21.898;2022-08-05T08:45:03;10.0;;;9.0;;
21120;SDS011;12519;43.318;21.898;2022-08-05T08:49:48;10.0;;;9.0;;
21120;SDS011;12519;43.318;21.898;2022-08-05T08:54:37;10.0;;;9.0;;
21120;SDS011;12519;43.318;21.898;2022-08-05T08:59:18;10.0;;;10.0;;
21120;SDS011;12519;43.318;21.898;2022-08-05T09:04:00;10.0;;;10.0;;
21120;SDS011;12519;43.318;21.898;2022-08-05T09:08:38;11.0;;;10.0;;
21120;SDS011;12519;43.318;21.898;2022-08-05T09:13:16;11.0;;;10.0;;
21120;SDS011;12519;43.318;21.898;2022-08-05T09:17:54;10.0;;;10.0;;
21120;SDS011;12519;43.318;21.898;2022-08-05T09:23:06;10.0;;;10.0;;
21120;SDS011;12519;43.318;21.898;2022-08-05T09:27:50;10.0;;;9.0;;
21120;SDS011;12519;43.318;21.898;2022-08-05T09:32:37;10.0;;;9.0;;
21120;SDS011;12519;43.318;21.898;2022-08-05T09:37:18;10.0;;;9.0;;
21120;SDS011;12519;43.318;21.898;2022-08-05T09:42:04;10.0;;;9.0;;
21120;SDS011;12519;43.318;21.898;2022-08-05T09:46:41;11.0;;;9.0;;
21120;SDS011;12519;43.318;21.898;2022-08-05T09:51:29;11.0;;;9.0;;
21120;SDS011;12519;43.318;21.898;2022-08-05T09:56:13;10.0;;;8.0;;
21120;SDS011;12519;43.318;21.898;2022-08-05T10:01:06;10.0;;;8.0;;
21120;SDS011;12519;43.318;21.898;2022-08-05T10:06:03;8.0;;;8.0;;
21120;SDS011;12519;43.318;21.898;2022-08-05T10:10:49;8.0;;;8.0;;
21120;SDS011;12519;43.318;21.898;2022-08-05T10:15:30;8.0;;;8.0;;
21120;SDS011;12519;43.318;21.898;2022-08-05T10:20:14;8.0;;;8.0;;
21120;SDS011;12519;43.318;21.898;2022-08-05T10:24:52;8.0;;;8.0;;
21120;SDS011;12519;43.318;21.898;2022-08-05T10:29:29;9.0;;;8.0;;
21120;SDS011;12519;43.318;21.898;2022-08-05T10:34:08;9.0;;;8.0;;
21120;SDS011;12519;43.318;21.898;2022-08-05T10:38:48;8.0;;;8.0;;
21120;SDS011;12519;43.318;21.898;2022-08-05T10:44:02;8.0;;;8.0;;
21120;SDS011;12519;43.318;21.898;2022-08-05T10:48:56;7.0;;;7.0;;
21120;SDS011;12519;43.318;21.898;2022-08-05T10:53:41;7.0;;;7.0;;
21120;SDS011;12519;43.318;21.898;2022-08-05T10:58:34;8.0;;;8.0;;
21120;SDS011;12519;43.318;21.898;2022-08-05T11:04:08;8.0;;;8.0;;
21120;SDS011;12519;43.318;21.898;2022-08-05T11:09:41;9.0;;;9.0;;
21120;SDS011;12519;43.318;21.898;2022-08-05T11:14:28;9.0;;;9.0;;
21120;SDS011;12519;43.318;21.898;2022-08-05T11:19:29;8.0;;;8.0;;
21120;SDS011;12519;43.318;21.898;2022-08-05T11:24:07;8.0;;;8.0;;
21120;SDS011;12519;43.318;21.898;2022-08-05T11:28:49;7.0;;;6.0;;
21120;SDS011;12519;43.318;21.898;2022-08-05T11:33:33;7.0;;;6.0;;
21120;SDS011;12519;43.318;21.898;2022-08-05T11:38:50;8.0;;;6.0;;
21120;SDS011;12519;43.318;21.898;2022-08-05T11:43:29;8.0;;;6.0;;
21120;SDS011;12519;43.318;21.898;2022-08-05T11:48:09;8.0;;;6.0;;
21120;SDS011;12519;43.318;21.898;2022-08-05T11:52:46;8.0;;;6.0;;
21120;SDS011;12519;43.318;21.898;2022-08-05T11:57:28;8.0;;;6.0;;
21120;SDS011;12519;43.318;21.898;2022-08-05T12:02:07;8.0;;;6.0;;
21120;SDS011;12519;43.318;21.898;2022-08-05T12:06:44;7.0;;;7.0;;
21120;SDS011;12519;43.318;21.898;2022-08-05T12:11:26;7.0;;;7.0;;
21120;SDS011;12519;43.318;21.898;2022-08-05T12:16:08;6.0;;;6.0;;
21120;SDS011;12519;43.318;21.898;2022-08-05T12:20:55;6.0;;;6.0;;
21120;SDS011;12519;43.318;21.898;2022-08-05T12:25:51;6.0;;;5.0;;
21120;SDS011;12519;43.318;21.898;2022-08-05T12:30:37;6.0;;;5.0;;
21120;SDS011;12519;43.318;21.898;2022-08-05T12:35:15;6.0;;;5.0;;
21120;SDS011;12519;43.318;21.898;2022-08-05T12:39:57;6.0;;;6.0;;
21120;SDS011;12519;43.318;21.898;2022-08-05T12:44:35;6.0;;;6.0;;
21120;SDS011;12519;43.318;21.898;2022-08-05T12:49:15;6.0;;;6.0;;
21120;SDS011;12519;43.318;21.898;2022-08-05T12:53:59;6.0;;;6.0;;
21120;SDS011;12519;43.318;21.898;2022-08-05T12:58:40;8.0;;;6.0;;
21120;SDS011;12519;43.318;21.898;2022-08-05T13:03:17;8.0;;;6.0;;
21120;SDS011;12519;43.318;21.898;2022-08-05T13:07:57;9.0;;;7.0;;
21120;SDS011;12519;43.318;21.898;2022-08-05T13:12:39;9.0;;;7.0;;
21120;SDS011;12519;43.318;21.898;2022-08-05T13:17:23;10.0;;;8.0;;
21120;SDS011;12519;43.318;21.898;2022-08-05T13:22:08;10.0;;;8.0;;
21120;SDS011;12519;43.318;21.898;2022-08-05T13:26:47;10.0;;;10.0;;
21120;SDS011;12519;43.318;21.898;2022-08-05T13:31:27;10.0;;;10.0;;
21120;SDS011;12519;43.318;21.898;2022-08-05T13:36:04;8.0;;;8.0;;
21120;SDS011;12519;43.318;21.898;2022-08-05T13:40:40;8.0;;;8.0;;
21120;SDS011;12519;43.318;21.898;2022-08-05T13:45:17;8.0;;;8.0;;
21120;SDS011;12519;43.318;21.898;2022-08-05T13:49:55;7.0;;;6.0;;
21120;SDS011;12519;43.318;21.898;2022-08-05T13:54:31;7.0;;;6.0;;
21120;SDS011;12519;43.318;21.898;2022-08-05T13:59:08;7.0;;;6.0;;
21120;SDS011;12519;43.318;21.898;2022-08-05T14:03:45;7.0;;;6.0;;
21120;SDS011;12519;43.318;21.898;2022-08-05T14:08:22;7.0;;;7.0;;
21120;SDS011;12519;43.318;21.898;2022-08-05T14:12:58;7.0;;;7.0;;
21120;SDS011;12519;43.318;21.898;2022-08-05T14:17:35;7.0;;;6.0;;
21120;SDS011;12519;43.318;21.898;2022-08-05T14:22:11;7.0;;;6.0;;
21120;SDS011;12519;43.318;21.898;2022-08-05T14:26:48;7.0;;;6.0;;
21120;SDS011;12519;43.318;21.898;2022-08-05T14:31:24;7.0;;;6.0;;
21120;SDS011;12519;43.318;21.898;2022-08-05T14:36:02;8.0;;;6.0;;
21120;SDS011;12519;43.318;21.898;2022-08-05T14:40:40;8.0;;;6.0;;
21120;SDS011;12519;43.318;21.898;2022-08-05T14:45:16;8.0;;;6.0;;
21120;SDS011;12519;43.318;21.898;2022-08-05T14:49:53;9.0;;;7.0;;
21120;SDS011;12519;43.318;21.898;2022-08-05T14:54:29;9.0;;;7.0;;
21120;SDS011;12519;43.318;21.898;2022-08-05T14:59:06;8.0;;;7.0;;
21120;SDS011;12519;43.318;21.898;2022-08-05T15:03:42;8.0;;;7.0;;
21120;SDS011;12519;43.318;21.898;2022-08-05T15:08:19;7.0;;;7.0;;
21120;SDS011;12519;43.318;21.898;2022-08-05T15:12:56;7.0;;;7.0;;
21120;SDS011;12519;43.318;21.898;2022-08-05T15:17:33;7.0;;;7.0;;
21120;SDS011;12519;43.318;21.898;2022-08-05T15:22:10;7.0;;;7.0;;
21120;SDS011;12519;43.318;21.898;2022-08-05T15:36:09;7.0;;;7.0;;
21120;SDS011;12519;43.318;21.898;2022-08-05T15:40:47;7.0;;;7.0;;
21120;SDS011;12519;43.318;21.898;2022-08-05T15:45:24;7.0;;;7.0;;
21120;SDS011;12519;43.318;21.898;2022-08-05T15:50:02;7.0;;;7.0;;
21120;SDS011;12519;43.318;21.898;2022-08-05T15:54:39;7.0;;;7.0;;
21120;SDS011;12519;43.318;21.898;2022-08-05T15:59:16;8.0;;;8.0;;
21120;SDS011;12519;43.318;21.898;2022-08-05T16:03:52;8.0;;;8.0;;
21120;SDS011;12519;43.318;21.898;2022-08-05T16:08:29;8.0;;;8.0;;
21120;SDS011;12519;43.318;21.898;2022-08-05T16:13:06;8.0;;;8.0;;
21120;SDS011;12519;43.318;21.898;2022-08-05T16:17:42;10.0;;;10.0;;
21120;SDS011;12519;43.318;21.898;2022-08-05T16:22:19;10.0;;;10.0;;
21120;SDS011;12519;43.318;21.898;2022-08-05T16:27:03;12.0;;;11.0;;
21120;SDS011;12519;43.318;21.898;2022-08-05T16:31:41;12.0;;;11.0;;
21120;SDS011;12519;43.318;21.898;2022-08-05T16:36:18;11.0;;;10.0;;
21120;SDS011;12519;43.318;21.898;2022-08-05T16:41:00;11.0;;;10.0;;
21120;SDS011;12519;43.318;21.898;2022-08-05T16:45:38;11.0;;;10.0;;
21120;SDS011;12519;43.318;21.898;2022-08-05T16:50:15;10.0;;;9.0;;
21120;SDS011;12519;43.318;21.898;2022-08-05T16:54:52;10.0;;;9.0;;
21120;SDS011;12519;43.318;21.898;2022-08-05T16:59:29;10.0;;;10.0;;
21120;SDS011;12519;43.318;21.898;2022-08-05T17:04:06;10.0;;;10.0;;
21120;SDS011;12519;43.318;21.898;2022-08-05T17:08:43;11.0;;;11.0;;
21120;SDS011;12519;43.318;21.898;2022-08-05T17:13:21;11.0;;;11.0;;
21120;SDS011;12519;43.318;21.898;2022-08-05T17:17:58;10.0;;;10.0;;
21120;SDS011;12519;43.318;21.898;2022-08-05T17:22:35;10.0;;;10.0;;
21120;SDS011;12519;43.318;21.898;2022-08-05T17:27:12;9.0;;;9.0;;
21120;SDS011;12519;43.318;21.898;2022-08-05T17:31:49;9.0;;;9.0;;
21120;SDS011;12519;43.318;21.898;2022-08-05T17:36:26;8.0;;;8.0;;
21120;SDS011;12519;43.318;21.898;2022-08-05T17:41:03;8.0;;;8.0;;
21120;SDS011;12519;43.318;21.898;2022-08-05T17:45:39;8.0;;;8.0;;
21120;SDS011;12519;43.318;21.898;2022-08-05T17:50:16;7.0;;;7.0;;
21120;SDS011;12519;43.318;21.898;2022-08-05T17:54:53;7.0;;;7.0;;
21120;SDS011;12519;43.318;21.898;2022-08-05T17:59:30;10.0;;;10.0;;
21120;SDS011;12519;43.318;21.898;2022-08-05T18:04:07;10.0;;;10.0;;
21120;SDS011;12519;43.318;21.898;2022-08-05T18:08:46;13.0;;;12.0;;
21120;SDS011;12519;43.318;21.898;2022-08-05T18:13:23;13.0;;;12.0;;
21120;SDS011;12519;43.318;21.898;2022-08-05T18:18:00;15.0;;;14.0;;
21120;SDS011;12519;43.318;21.898;2022-08-05T18:22:38;15.0;;;14.0;;
21120;SDS011;12519;43.318;21.898;2022-08-05T18:27:15;17.0;;;15.0;;
21120;SDS011;12519;43.318;21.898;2022-08-05T18:31:52;17.0;;;15.0;;
21120;SDS011;12519;43.318;21.898;2022-08-05T18:36:29;13.0;;;12.0;;
21120;SDS011;12519;43.318;21.898;2022-08-05T18:41:07;13.0;;;12.0;;
21120;SDS011;12519;43.318;21.898;2022-08-05T18:45:44;13.0;;;12.0;;
21120;SDS011;12519;43.318;21.898;2022-08-05T18:50:22;9.0;;;8.0;;
21120;SDS011;12519;43.318;21.898;2022-08-05T18:55:07;9.0;;;8.0;;
21120;SDS011;12519;43.318;21.898;2022-08-05T18:59:46;12.0;;;9.0;;
21120;SDS011;12519;43.318;21.898;2022-08-05T19:04:23;12.0;;;9.0;;
21120;SDS011;12519;43.318;21.898;2022-08-05T19:08:59;14.0;;;10.0;;
21120;SDS011;12519;43.318;21.898;2022-08-05T19:13:36;14.0;;;10.0;;
21120;SDS011;12519;43.318;21.898;2022-08-05T19:18:13;13.0;;;10.0;;
21120;SDS011;12519;43.318;21.898;2022-08-05T19:22:51;13.0;;;10.0;;
21120;SDS011;12519;43.318;21.898;2022-08-05T19:27:27;12.0;;;9.0;;
21120;SDS011;12519;43.318;21.898;2022-08-05T19:32:06;12.0;;;9.0;;
21120;SDS011;12519;43.318;21.898;2022-08-05T19:36:43;16.0;;;13.0;;
21120;SDS011;12519;43.318;21.898;2022-08-05T19:41:20;16.0;;;13.0;;
21120;SDS011;12519;43.318;21.898;2022-08-05T19:45:57;16.0;;;13.0;;
21120;SDS011;12519;43.318;21.898;2022-08-05T19:50:33;20.0;;;17.0;;
21120;SDS011;12519;43.318;21.898;2022-08-05T19:55:10;20.0;;;17.0;;
21120;SDS011;12519;43.318;21.898;2022-08-05T19:59:47;20.0;;;18.0;;
21120;SDS011;12519;43.318;21.898;2022-08-05T20:04:24;20.0;;;18.0;;
21120;SDS011;12519;43.318;21.898;2022-08-05T20:09:04;20.0;;;18.0;;
21120;SDS011;12519;43.318;21.898;2022-08-05T20:13:40;20.0;;;18.0;;
21120;SDS011;12519;43.318;21.898;2022-08-05T20:18:17;18.0;;;16.0;;
21120;SDS011;12519;43.318;21.898;2022-08-05T20:22:55;18.0;;;16.0;;
21120;SDS011;12519;43.318;21.898;2022-08-05T20:27:31;16.0;;;13.0;;
21120;SDS011;12519;43.318;21.898;2022-08-05T20:32:08;16.0;;;13.0;;
21120;SDS011;12519;43.318;21.898;2022-08-05T20:36:44;16.0;;;14.0;;
21120;SDS011;12519;43.318;21.898;2022-08-05T20:41:21;16.0;;;14.0;;
21120;SDS011;12519;43.318;21.898;2022-08-05T20:45:58;16.0;;;14.0;;
21120;SDS011;12519;43.318;21.898;2022-08-05T20:50:37;16.0;;;14.0;;
21120;SDS011;12519;43.318;21.898;2022-08-05T20:55:14;16.0;;;14.0;;
21120;SDS011;12519;43.318;21.898;2022-08-05T20:59:50;16.0;;;14.0;;
21120;SDS011;12519;43.318;21.898;2022-08-05T21:04:27;16.0;;;14.0;;
21120;SDS011;12519;43.318;21.898;2022-08-05T21:09:06;15.0;;;14.0;;
21120;SDS011;12519;43.318;21.898;2022-08-05T21:13:43;15.0;;;14.0;;
21120;SDS011;12519;43.318;21.898;2022-08-05T21:18:20;16.0;;;14.0;;
21120;SDS011;12519;43.318;21.898;2022-08-05T21:22:57;16.0;;;14.0;;
21120;SDS011;12519;43.318;21.898;2022-08-05T21:27:34;18.0;;;15.0;;
21120;SDS011;12519;43.318;21.898;2022-08-05T21:32:10;18.0;;;15.0;;
21120;SDS011;12519;43.318;21.898;2022-08-05T21:36:47;18.0;;;16.0;;
21120;SDS011;12519;43.318;21.898;2022-08-05T21:41:24;18.0;;;16.0;;
21120;SDS011;12519;43.318;21.898;2022-08-05T21:46:00;18.0;;;16.0;;
21120;SDS011;12519;43.318;21.898;2022-08-05T21:50:39;19.0;;;16.0;;
21120;SDS011;12519;43.318;21.898;2022-08-05T21:55:16;19.0;;;16.0;;
21120;SDS011;12519;43.318;21.898;2022-08-05T21:59:54;17.0;;;14.0;;
21120;SDS011;12519;43.318;21.898;2022-08-05T22:04:30;17.0;;;14.0;;
21120;SDS011;12519;43.318;21.898;2022-08-05T22:09:07;15.0;;;13.0;;
21120;SDS011;12519;43.318;21.898;2022-08-05T22:13:47;15.0;;;13.0;;
21120;SDS011;12519;43.318;21.898;2022-08-05T22:18:25;14.0;;;12.0;;
21120;SDS011;12519;43.318;21.898;2022-08-05T22:23:02;14.0;;;12.0;;
21120;SDS011;12519;43.318;21.898;2022-08-05T22:27:38;13.0;;;12.0;;
21120;SDS011;12519;43.318;21.898;2022-08-05T22:32:15;13.0;;;12.0;;
21120;SDS011;12519;43.318;21.898;2022-08-05T22:36:51;12.0;;;12.0;;
21120;SDS011;12519;43.318;21.898;2022-08-05T22:41:28;12.0;;;12.0;;
21120;SDS011;12519;43.318;21.898;2022-08-05T22:46:06;12.0;;;12.0;;
21120;SDS011;12519;43.318;21.898;2022-08-05T22:50:43;12.0;;;11.0;;
21120;SDS011;12519;43.318;21.898;2022-08-05T22:55:22;12.0;;;11.0;;
21120;SDS011;12519;43.318;21.898;2022-08-05T23:00:00;11.0;;;10.0;;
21120;SDS011;12519;43.318;21.898;2022-08-05T23:04:40;11.0;;;10.0;;
21120;SDS011;12519;43.318;21.898;2022-08-05T23:09:16;10.0;;;9.0;;
21120;SDS011;12519;43.318;21.898;2022-08-05T23:13:53;10.0;;;9.0;;
21120;SDS011;12519;43.318;21.898;2022-08-05T23:18:30;12.0;;;10.0;;
21120;SDS011;12519;43.318;21.898;2022-08-05T23:23:06;12.0;;;10.0;;
21120;SDS011;12519;43.318;21.898;2022-08-05T23:27:44;13.0;;;11.0;;
21120;SDS011;12519;43.318;21.898;2022-08-05T23:32:21;13.0;;;11.0;;
21120;SDS011;12519;43.318;21.898;2022-08-05T23:36:58;12.0;;;10.0;;
21120;SDS011;12519;43.318;21.898;2022-08-05T23:41:36;12.0;;;10.0;;
21120;SDS011;12519;43.318;21.898;2022-08-05T23:46:13;12.0;;;10.0;;
21120;SDS011;12519;43.318;21.898;2022-08-05T23:50:49;11.0;;;10.0;;
21120;SDS011;12519;43.318;21.898;2022-08-05T23:55:26;11.0;;;10.0;;
